Time;durP1;ratioP1;P1;durP2;ratioP2;P2;SDS_P1;SDS_P2;PMS_P1;PMS_P2;Temp;Humidity;BMP_temperature;BMP_pressure;BME280_temperature;BME280_humidity;BME280_pressure;Samples;Min_cycle;Max_cycle;Signal;HPM_P1;HPM_P2
2023/05/31 00:02:07;;;;;;;5.33;2.07;;;12.00;99.90;;;;;;4975817;28;20227;-81
2023/05/31 00:04:34;;;;;;;2.60;1.73;;;12.00;99.90;;;;;;4992078;28;20227;-81
2023/05/31 00:07:00;;;;;;;1.80;1.53;;;12.00;99.90;;;;;;5009118;28;20223;-80
2023/05/31 00:09:25;;;;;;;6.23;1.20;;;12.00;99.90;;;;;;4991531;28;20219;-81
2023/05/31 00:11:51;;;;;;;2.23;1.50;;;12.00;99.90;;;;;;4976061;28;20183;-80
2023/05/31 00:14:17;;;;;;;3.70;2.13;;;12.00;99.90;;;;;;4975162;28;20231;-81
2023/05/31 00:16:43;;;;;;;2.17;1.30;;;12.00;99.90;;;;;;4975517;28;20685;-82
2023/05/31 00:19:08;;;;;;;2.17;1.63;;;12.00;99.90;;;;;;4991782;28;20610;-81
2023/05/31 00:21:35;;;;;;;5.17;1.83;;;11.90;99.90;;;;;;4991322;28;20770;-83
2023/05/31 00:24:00;;;;;;;2.10;1.40;;;11.90;99.90;;;;;;4991564;28;20547;-83
2023/05/31 00:26:26;;;;;;;4.40;2.60;;;11.90;99.90;;;;;;4992269;28;20241;-81
2023/05/31 00:28:52;;;;;;;4.67;1.63;;;11.90;99.90;;;;;;4975280;28;20858;-82
2023/05/31 00:31:18;;;;;;;2.37;1.40;;;11.90;99.90;;;;;;4991255;28;20661;-82
2023/05/31 00:33:44;;;;;;;5.67;2.00;;;11.90;99.90;;;;;;5008634;28;20273;-83
2023/05/31 00:36:10;;;;;;;3.13;1.93;;;11.90;99.90;;;;;;4991261;28;20175;-82
2023/05/31 00:38:35;;;;;;;3.10;2.17;;;11.90;99.90;;;;;;4991536;28;20794;-82
2023/05/31 00:41:01;;;;;;;5.40;1.70;;;11.80;99.90;;;;;;4991194;28;20508;-83
2023/05/31 00:43:27;;;;;;;4.23;1.83;;;11.70;99.90;;;;;;5008327;28;20226;-81
2023/05/31 00:45:53;;;;;;;4.03;1.70;;;11.70;99.90;;;;;;4974938;28;20711;-83
2023/05/31 00:48:19;;;;;;;2.27;1.50;;;11.60;99.90;;;;;;4975323;28;20298;-80
2023/05/31 00:50:45;;;;;;;1.90;1.33;;;11.50;99.90;;;;;;4975440;28;20628;-80
2023/05/31 00:53:10;;;;;;;2.47;1.17;;;11.50;99.90;;;;;;4991331;28;20269;-81
2023/05/31 00:55:37;;;;;;;2.23;2.07;;;11.40;99.90;;;;;;5008583;28;20219;-81
2023/05/31 00:58:03;;;;;;;4.33;2.00;;;11.30;99.90;;;;;;4991056;28;20215;-82
2023/05/31 01:00:30;;;;;;;2.90;2.30;;;11.20;99.90;;;;;;4991153;28;20594;-80
2023/05/31 01:02:56;;;;;;;2.50;1.37;;;11.20;99.90;;;;;;4991111;28;20346;-81
2023/05/31 01:05:22;;;;;;;3.20;1.93;;;11.10;99.90;;;;;;4991298;28;20751;-82
2023/05/31 01:07:48;;;;;;;2.37;1.23;;;11.10;99.90;;;;;;4974930;28;20714;-82
2023/05/31 01:10:14;;;;;;;1.73;1.63;;;11.00;99.90;;;;;;4974224;28;20231;-83
2023/05/31 01:13:12;;;;;;;7.07;1.43;;;11.00;99.90;;;;;;4958677;28;20227;-82
2023/05/31 01:15:51;;;;;;;9.13;2.03;;;11.00;99.90;;;;;;5008194;28;20219;-83
2023/05/31 01:18:26;;;;;;;4.43;2.17;;;10.90;99.90;;;;;;5007781;28;20276;-81
2023/05/31 01:20:54;;;;;;;7.83;2.83;;;10.90;99.90;;;;;;5007641;28;20210;-82
2023/05/31 01:23:26;;;;;;;2.90;2.07;;;10.80;99.90;;;;;;5006586;28;20235;-82
2023/05/31 01:26:05;;;;;;;2.60;2.40;;;10.70;99.90;;;;;;5007868;28;20307;-81
2023/05/31 01:28:35;;;;;;;6.30;1.20;;;10.70;99.90;;;;;;5007994;28;20693;-81
2023/05/31 01:31:07;;;;;;;2.23;1.73;;;10.60;99.90;;;;;;4990248;28;20211;-81
2023/05/31 01:33:34;;;;;;;3.73;2.03;;;10.60;99.90;;;;;;5007972;28;20337;-82
2023/05/31 01:36:00;;;;;;;2.93;2.10;;;10.60;99.90;;;;;;4990422;28;20636;-81
2023/05/31 01:38:25;;;;;;;1.80;1.70;;;10.50;99.90;;;;;;4974278;28;20319;-81
2023/05/31 01:40:52;;;;;;;4.07;1.43;;;10.50;99.90;;;;;;4990262;28;20227;-83
2023/05/31 01:43:19;;;;;;;4.77;2.30;;;10.60;99.90;;;;;;4973832;28;20239;-81
2023/05/31 01:45:45;;;;;;;2.53;1.47;;;10.60;99.90;;;;;;5007462;28;20816;-80
2023/05/31 01:48:11;;;;;;;2.70;1.43;;;10.50;99.90;;;;;;4989868;28;20195;-82
2023/05/31 01:50:39;;;;;;;1.20;0.70;;;10.50;99.90;;;;;;4974555;28;20191;-81
2023/05/31 01:53:05;;;;;;;4.07;1.80;;;10.50;99.90;;;;;;4989778;28;20223;-83
2023/05/31 01:55:31;;;;;;;3.67;1.33;;;10.40;99.90;;;;;;4957517;28;20219;-82
2023/05/31 01:57:59;;;;;;;6.13;2.23;;;10.40;99.90;;;;;;5007385;28;20680;-81
2023/05/31 02:00:26;;;;;;;5.20;2.63;;;10.40;99.90;;;;;;4989561;28;20309;-81
2023/05/31 02:02:52;;;;;;;7.77;2.13;;;10.30;99.90;;;;;;4974227;28;20676;-81
2023/05/31 02:05:18;;;;;;;1.60;1.47;;;10.30;99.90;;;;;;4989921;28;20224;-80
2023/05/31 02:07:45;;;;;;;6.67;1.23;;;10.30;99.90;;;;;;4957596;28;20626;-80
2023/05/31 02:10:12;;;;;;;1.70;1.60;;;10.30;99.90;;;;;;4989689;28;20349;-81
2023/05/31 02:12:38;;;;;;;4.13;2.03;;;10.30;99.90;;;;;;4989952;28;20215;-81
2023/05/31 02:15:10;;;;;;;2.43;1.80;;;10.20;99.90;;;;;;4989821;28;20183;-80
2023/05/31 02:17:40;;;;;;;3.80;1.20;;;10.20;99.90;;;;;;4959777;28;20175;-80
2023/05/31 02:20:09;;;;;;;2.00;1.80;;;10.30;99.90;;;;;;4989844;28;20219;-82
2023/05/31 02:22:34;;;;;;;0.93;0.93;;;10.20;99.90;;;;;;4973671;28;20249;-80
2023/05/31 02:25:00;;;;;;;2.67;1.90;;;10.10;99.90;;;;;;4973461;28;20800;-81
2023/05/31 02:27:28;;;;;;;0.70;0.67;;;10.00;99.90;;;;;;4989460;28;20215;-82
2023/05/31 02:29:54;;;;;;;4.33;1.50;;;10.00;99.90;;;;;;4989934;28;20559;-80
2023/05/31 02:32:19;;;;;;;2.20;1.57;;;10.00;99.90;;;;;;5006792;28;20176;-83
2023/05/31 02:34:45;;;;;;;1.83;1.47;;;9.90;99.90;;;;;;4989409;28;20314;-82
2023/05/31 02:37:11;;;;;;;2.17;1.70;;;9.90;99.90;;;;;;4972291;28;20243;-81
2023/05/31 02:39:37;;;;;;;4.07;2.30;;;9.90;99.90;;;;;;4989290;28;20305;-81
2023/05/31 02:42:03;;;;;;;3.33;1.63;;;9.90;99.90;;;;;;4972977;28;20298;-81
2023/05/31 02:44:28;;;;;;;2.73;1.53;;;9.90;99.90;;;;;;5007396;28;20720;-83
2023/05/31 02:46:54;;;;;;;1.47;1.37;;;9.90;99.90;;;;;;5006718;28;20226;-80
2023/05/31 02:49:20;;;;;;;1.80;1.37;;;9.90;99.90;;;;;;4988895;28;20218;-81
2023/05/31 02:51:46;;;;;;;2.70;1.50;;;9.90;99.90;;;;;;4989535;28;20230;-81
2023/05/31 02:54:11;;;;;;;6.20;2.43;;;10.00;99.90;;;;;;4989268;28;20535;-81
2023/05/31 02:56:37;;;;;;;3.13;1.53;;;10.10;99.90;;;;;;5007703;28;20195;-83
2023/05/31 02:59:03;;;;;;;1.83;1.70;;;10.00;99.90;;;;;;4973293;28;20223;-81
2023/05/31 03:01:29;;;;;;;3.10;1.63;;;10.00;99.90;;;;;;4989100;28;20235;-81
2023/05/31 03:03:55;;;;;;;5.80;3.07;;;9.90;99.90;;;;;;4957009;28;20677;-80
2023/05/31 03:06:20;;;;;;;1.93;1.73;;;9.90;99.90;;;;;;5006338;28;20219;-81
2023/05/31 03:08:47;;;;;;;1.53;1.43;;;9.90;99.90;;;;;;4989630;28;20182;-83
2023/05/31 03:11:12;;;;;;;3.30;2.80;;;9.90;99.90;;;;;;4988694;28;20568;-81
2023/05/31 03:13:38;;;;;;;1.77;1.67;;;9.90;99.90;;;;;;4988543;28;20695;-80
2023/05/31 03:16:04;;;;;;;12.37;2.73;;;9.90;99.90;;;;;;4988296;28;20243;-80
2023/05/31 03:18:30;;;;;;;2.67;2.23;;;10.00;99.90;;;;;;4972397;28;20212;-82
2023/05/31 03:20:55;;;;;;;8.07;3.63;;;10.10;99.90;;;;;;4989383;28;20195;-82
2023/05/31 03:23:21;;;;;;;2.00;1.80;;;10.20;99.90;;;;;;4989188;28;20245;-81
2023/05/31 03:25:47;;;;;;;2.87;1.43;;;10.20;99.90;;;;;;4956728;28;20216;-81
2023/05/31 03:28:13;;;;;;;2.93;1.60;;;10.10;99.90;;;;;;4988895;28;20211;-81
2023/05/31 03:30:38;;;;;;;3.00;2.20;;;10.10;99.90;;;;;;4989139;28;20215;-82
2023/05/31 03:33:04;;;;;;;3.10;1.87;;;10.10;99.90;;;;;;4956849;28;20188;-81
2023/05/31 03:35:30;;;;;;;4.47;1.90;;;10.10;99.90;;;;;;4973386;28;20332;-80
2023/05/31 03:37:56;;;;;;;14.30;2.60;;;10.20;99.90;;;;;;4988647;28;20247;-82
2023/05/31 03:40:21;;;;;;;2.27;1.50;;;10.20;99.90;;;;;;4956646;28;20215;-80
2023/05/31 03:42:47;;;;;;;3.57;2.40;;;10.30;99.90;;;;;;4973362;28;20227;-80
2023/05/31 03:45:13;;;;;;;4.37;1.83;;;10.30;99.90;;;;;;4975943;28;20215;-81
2023/05/31 03:47:39;;;;;;;4.70;1.53;;;10.40;99.90;;;;;;5010139;28;20215;-81
2023/05/31 03:50:05;;;;;;;2.90;2.00;;;10.50;99.90;;;;;;4960215;28;20246;-80
2023/05/31 03:52:31;;;;;;;8.50;1.73;;;10.60;99.90;;;;;;4976112;28;20223;-81
2023/05/31 03:54:57;;;;;;;3.10;1.33;;;10.70;99.90;;;;;;4959854;28;20229;-81
2023/05/31 03:57:26;;;;;;;6.93;3.80;;;10.70;99.90;;;;;;5009566;28;20224;-81
2023/05/31 03:59:51;;;;;;;3.37;2.33;;;10.70;99.90;;;;;;4993371;28;20274;-81
2023/05/31 04:02:17;;;;;;;2.47;1.87;;;10.70;99.90;;;;;;5009169;28;20370;-81
2023/05/31 04:04:43;;;;;;;18.87;2.33;;;10.80;99.90;;;;;;4992116;28;20306;-83
2023/05/31 04:07:08;;;;;;;2.60;2.40;;;10.80;99.90;;;;;;4991869;28;20219;-81
2023/05/31 04:09:34;;;;;;;3.83;1.87;;;10.90;99.90;;;;;;4991873;28;20211;-82
2023/05/31 04:12:00;;;;;;;4.93;2.37;;;10.90;99.90;;;;;;4959843;28;20327;-82
2023/05/31 04:14:26;;;;;;;3.77;2.77;;;11.00;99.90;;;;;;4992348;28;20183;-82
2023/05/31 04:16:51;;;;;;;4.90;3.47;;;11.00;99.90;;;;;;4975621;28;20231;-81
2023/05/31 04:19:17;;;;;;;4.90;2.90;;;11.00;99.90;;;;;;4959330;28;20227;-80
2023/05/31 04:21:43;;;;;;;2.47;2.27;;;11.10;99.90;;;;;;4975766;28;20239;-81
2023/05/31 04:24:09;;;;;;;4.67;2.60;;;11.30;99.90;;;;;;5009429;28;20184;-81
2023/05/31 04:26:34;;;;;;;6.03;3.47;;;11.30;99.90;;;;;;4975998;28;20194;-81
2023/05/31 04:29:00;;;;;;;4.83;2.70;;;11.30;99.90;;;;;;4975470;28;20226;-81
2023/05/31 04:31:28;;;;;;;3.33;3.07;;;11.40;99.90;;;;;;4975286;28;20226;-82
2023/05/31 04:33:57;;;;;;;7.00;2.73;;;11.40;99.90;;;;;;4975635;28;20230;-81
2023/05/31 04:36:25;;;;;;;1.73;1.50;;;11.60;99.90;;;;;;4959805;28;20809;-83
2023/05/31 04:38:55;;;;;;;4.33;2.50;;;11.70;99.90;;;;;;4991776;28;20269;-81
2023/05/31 04:41:25;;;;;;;5.77;3.63;;;11.90;99.90;;;;;;4992186;28;20222;-82
2023/05/31 04:43:53;;;;;;;4.33;2.47;;;12.00;99.90;;;;;;5008455;28;20226;-83
2023/05/31 04:46:19;;;;;;;4.43;1.93;;;12.10;99.90;;;;;;4991191;28;20231;-81
2023/05/31 04:48:49;;;;;;;3.27;2.87;;;12.30;99.90;;;;;;4991403;28;20211;-82
2023/05/31 04:51:17;;;;;;;11.40;2.87;;;12.40;99.90;;;;;;4975591;28;20306;-81
2023/05/31 04:53:43;;;;;;;10.70;3.20;;;12.50;99.90;;;;;;4975515;28;20183;-81
2023/05/31 04:56:12;;;;;;;2.63;2.27;;;12.50;99.90;;;;;;4975010;28;20223;-82
2023/05/31 04:58:38;;;;;;;5.10;2.83;;;12.60;99.90;;;;;;4991293;28;20303;-82
2023/05/31 05:01:04;;;;;;;7.03;3.23;;;12.70;99.90;;;;;;4991289;28;20302;-81
2023/05/31 05:03:31;;;;;;;6.77;3.20;;;12.70;99.90;;;;;;4990907;28;20326;-82
2023/05/31 05:05:57;;;;;;;3.83;2.63;;;12.80;99.90;;;;;;4991171;28;20187;-81
2023/05/31 05:08:23;;;;;;;4.83;2.30;;;13.10;99.90;;;;;;4975223;28;20183;-82
2023/05/31 05:10:49;;;;;;;6.03;2.20;;;13.20;99.90;;;;;;4974620;28;20301;-82
2023/05/31 05:13:16;;;;;;;6.43;3.20;;;13.20;99.90;;;;;;4990598;28;20233;-81
2023/05/31 05:15:41;;;;;;;4.00;2.83;;;13.40;99.90;;;;;;4990716;28;20227;-82
2023/05/31 05:18:07;;;;;;;4.07;2.83;;;13.60;99.90;;;;;;4958528;28;20232;-82
2023/05/31 05:20:33;;;;;;;2.27;2.07;;;14.20;99.90;;;;;;4991126;28;20598;-81
2023/05/31 05:23:02;;;;;;;10.10;3.37;;;16.00;99.90;;;;;;4958214;28;20277;-82
2023/05/31 05:25:28;;;;;;;4.57;1.67;;;17.60;99.90;;;;;;4974489;28;20227;-82
2023/05/31 05:27:53;;;;;;;3.33;2.00;;;19.30;99.90;;;;;;4990482;28;20225;-81
2023/05/31 05:30:19;;;;;;;4.30;1.73;;;20.90;99.90;;;;;;4973707;28;20223;-80
2023/05/31 05:32:45;;;;;;;4.67;2.33;;;22.40;99.90;;;;;;4991112;28;20187;-80
2023/05/31 05:35:11;;;;;;;2.80;1.67;;;23.20;99.90;;;;;;4973981;28;20598;-81
2023/05/31 05:37:37;;;;;;;2.57;1.97;;;25.00;99.90;;;;;;4989668;28;20243;-83
2023/05/31 05:40:06;;;;;;;6.33;1.63;;;23.70;99.90;;;;;;4990527;28;20227;-81
2023/05/31 05:42:32;;;;;;;2.07;1.67;;;23.10;99.90;;;;;;4990133;28;20235;-80
2023/05/31 05:44:57;;;;;;;3.03;1.20;;;23.30;99.90;;;;;;4989694;28;20184;-82
2023/05/31 05:47:24;;;;;;;3.23;1.80;;;23.40;99.90;;;;;;4957799;28;20187;-80
2023/05/31 05:49:49;;;;;;;5.00;1.73;;;24.50;99.90;;;;;;4973665;28;20228;-81
2023/05/31 05:52:15;;;;;;;6.80;2.17;;;24.60;99.90;;;;;;4990161;28;20223;-81
2023/05/31 05:54:41;;;;;;;3.13;2.10;;;23.50;99.90;;;;;;4973749;28;20826;-81
2023/05/31 05:57:07;;;;;;;6.63;1.47;;;23.30;99.90;;;;;;4989786;28;20199;-80
2023/05/31 05:59:32;;;;;;;5.10;1.83;;;23.20;99.90;;;;;;4990283;28;20274;-82
2023/05/31 06:01:58;;;;;;;2.13;1.87;;;23.40;99.90;;;;;;4973326;28;20285;-79
2023/05/31 06:04:24;;;;;;;3.70;2.17;;;21.70;99.90;;;;;;4989405;28;20227;-80
2023/05/31 06:06:50;;;;;;;4.07;2.10;;;22.80;99.90;;;;;;4989170;28;20684;-80
2023/05/31 06:09:16;;;;;;;2.83;2.23;;;22.10;99.90;;;;;;4989296;28;20234;-81
2023/05/31 06:11:42;;;;;;;2.97;2.27;;;22.40;99.90;;;;;;4990251;28;20187;-80
2023/05/31 06:14:08;;;;;;;7.20;2.13;;;22.50;99.90;;;;;;4973271;28;20598;-80
2023/05/31 06:16:36;;;;;;;4.53;1.80;;;22.60;99.90;;;;;;4973101;28;20731;-82
2023/05/31 06:19:02;;;;;;;3.47;1.70;;;22.50;99.90;;;;;;5007116;28;20219;-80
2023/05/31 06:21:28;;;;;;;2.57;1.50;;;23.10;99.90;;;;;;5006719;28;20333;-81
2023/05/31 06:23:53;;;;;;;1.93;1.80;;;22.40;99.90;;;;;;4973094;28;20652;-80
2023/05/31 06:26:19;;;;;;;2.13;1.40;;;22.70;99.90;;;;;;4990057;28;20191;-81
2023/05/31 06:28:45;;;;;;;6.38;1.55;;;22.40;99.90;;;;;;4989430;28;20253;-80
2023/05/31 06:31:11;;;;;;;3.93;1.20;;;21.80;99.90;;;;;;4973415;28;20683;-83
2023/05/31 06:33:36;;;;;;;2.87;1.73;;;20.00;99.90;;;;;;4989175;28;20223;-81
2023/05/31 06:36:02;;;;;;;1.47;1.13;;;19.80;99.90;;;;;;4989428;28;20633;-81
2023/05/31 06:38:29;;;;;;;3.43;1.80;;;20.70;99.90;;;;;;4973500;28;20699;-79
2023/05/31 06:40:54;;;;;;;2.17;1.23;;;22.20;99.90;;;;;;5006866;28;20677;-80
2023/05/31 06:43:20;;;;;;;5.23;1.83;;;23.60;99.90;;;;;;4956768;28;20293;-80
2023/05/31 06:45:47;;;;;;;2.28;1.17;;;23.20;99.90;;;;;;4972873;28;20285;-81
2023/05/31 06:48:12;;;;;;;2.38;1.55;;;23.60;99.90;;;;;;4973341;28;20187;-80
2023/05/31 06:50:38;;;;;;;1.30;1.20;;;23.40;99.90;;;;;;4973409;28;20189;-82
2023/05/31 06:53:04;;;;;;;2.42;1.45;;;22.90;99.90;;;;;;5006626;28;20844;-80
2023/05/31 06:55:30;;;;;;;9.77;2.00;;;22.20;99.90;;;;;;4988821;28;20790;-81
2023/05/31 06:57:56;;;;;;;3.65;2.40;;;19.80;99.90;;;;;;4989082;28;20223;-80
2023/05/31 07:00:22;;;;;;;2.37;1.70;;;19.90;99.90;;;;;;4972813;28;20262;-81
2023/05/31 07:02:48;;;;;;;2.93;1.97;;;20.80;99.90;;;;;;4989925;28;20311;-79
2023/05/31 07:05:13;;;;;;;2.15;1.65;;;22.40;99.90;;;;;;4972806;28;20731;-80
2023/05/31 07:07:39;;;;;;;3.20;1.65;;;21.90;99.90;;;;;;4956634;28;20741;-79
2023/05/31 07:10:05;;;;;;;6.38;2.17;;;21.20;99.90;;;;;;5006460;28;20215;-82
2023/05/31 07:12:31;;;;;;;1.75;1.50;;;21.00;99.90;;;;;;4989046;28;20716;-80
2023/05/31 07:14:56;;;;;;;3.38;1.95;;;21.70;99.90;;;;;;5006439;28;20198;-79
2023/05/31 07:17:22;;;;;;;1.57;1.30;;;21.00;99.90;;;;;;4991227;28;20625;-80
2023/05/31 07:19:49;;;;;;;3.80;1.60;;;20.50;99.90;;;;;;4992677;28;20215;-80
2023/05/31 07:22:15;;;;;;;2.85;1.67;;;20.50;99.90;;;;;;4992952;28;20256;-81
2023/05/31 07:24:42;;;;;;;3.13;1.75;;;21.60;99.90;;;;;;4976489;28;20223;-82
2023/05/31 07:27:08;;;;;;;2.53;1.40;;;22.10;99.90;;;;;;5010150;28;20255;-80
2023/05/31 07:29:34;;;;;;;4.38;1.77;;;22.50;99.90;;;;;;4976924;28;20772;-80
2023/05/31 07:32:00;;;;;;;3.83;1.98;;;22.50;99.90;;;;;;4992538;28;20277;-81
2023/05/31 07:34:26;;;;;;;3.80;1.65;;;21.50;99.90;;;;;;4976012;28;20223;-80
2023/05/31 07:36:51;;;;;;;5.10;1.88;;;20.70;99.90;;;;;;4990645;28;20225;-82
2023/05/31 07:39:18;;;;;;;4.93;2.07;;;20.40;99.90;;;;;;4990956;28;20235;-81
2023/05/31 07:41:44;;;;;;;3.37;1.83;;;19.50;99.90;;;;;;4991194;28;20306;-82
2023/05/31 07:44:09;;;;;;;2.73;1.30;;;19.40;99.90;;;;;;5009175;28;20654;-81
2023/05/31 07:46:38;;;;;;;4.17;1.77;;;19.50;99.90;;;;;;4975051;28;20223;-81
2023/05/31 07:49:03;;;;;;;5.37;2.20;;;19.70;99.90;;;;;;4989299;28;20243;-81
2023/05/31 07:51:30;;;;;;;8.53;2.13;;;20.60;99.90;;;;;;4974986;28;20580;-83
2023/05/31 07:53:56;;;;;;;7.70;2.43;;;19.60;99.90;;;;;;4991265;28;20249;-81
2023/05/31 07:56:22;;;;;;;5.47;1.97;;;20.10;99.90;;;;;;4990099;28;20246;-83
2023/05/31 07:58:48;;;;;;;5.57;1.67;;;20.70;99.90;;;;;;5008625;28;20230;-83
2023/05/31 08:01:13;;;;;;;3.20;1.63;;;20.20;99.90;;;;;;4990767;28;20724;-83
2023/05/31 08:03:41;;;;;;;4.93;1.63;;;20.70;99.90;;;;;;4991748;28;20266;-84
2023/05/31 08:06:07;;;;;;;3.60;1.90;;;21.60;99.90;;;;;;5006965;28;20302;-82
2023/05/31 08:08:33;;;;;;;1.67;1.50;;;20.40;99.90;;;;;;5008122;28;20551;-81
2023/05/31 08:11:00;;;;;;;3.67;2.07;;;19.00;99.90;;;;;;4991287;28;20731;-82
2023/05/31 08:13:28;;;;;;;2.10;1.40;;;19.40;99.90;;;;;;5008220;28;20265;-82
2023/05/31 08:15:55;;;;;;;4.30;1.63;;;19.70;99.90;;;;;;5008084;28;20214;-82
2023/05/31 08:18:21;;;;;;;5.33;1.67;;;20.30;99.90;;;;;;4991625;28;20179;-82
2023/05/31 08:20:47;;;;;;;3.17;1.43;;;20.50;99.90;;;;;;4958578;28;20219;-81
2023/05/31 08:23:20;;;;;;;3.10;1.30;;;20.70;99.90;;;;;;4990958;28;20318;-82
2023/05/31 08:25:47;;;;;;;1.90;1.20;;;21.90;99.90;;;;;;5008025;28;20219;-82
2023/05/31 08:28:13;;;;;;;3.03;1.73;;;21.20;99.90;;;;;;4989240;28;20266;-81
2023/05/31 08:30:39;;;;;;;2.65;1.30;;;20.80;99.90;;;;;;4991256;28;20182;-81
2023/05/31 08:33:05;;;;;;;2.17;1.37;;;19.60;99.90;;;;;;5008338;28;20231;-82
2023/05/31 08:35:31;;;;;;;8.37;2.00;;;18.90;99.90;;;;;;4991020;28;20565;-83
2023/05/31 08:37:57;;;;;;;2.87;1.30;;;19.80;99.90;;;;;;4974749;28;20313;-81
2023/05/31 08:40:24;;;;;;;1.97;1.67;;;19.60;99.90;;;;;;5008728;28;20246;-84
2023/05/31 08:43:00;;;;;;;5.40;2.50;;;19.30;99.90;;;;;;5008719;28;20661;-83
2023/05/31 08:45:29;;;;;;;3.07;1.73;;;18.10;99.90;;;;;;5009256;28;20349;-81
2023/05/31 08:48:34;;;;;;;2.97;1.40;;;17.60;99.90;;;;;;5007426;28;20382;-82
2023/05/31 08:51:01;;;;;;;4.13;1.70;;;16.80;99.90;;;;;;4990619;28;20405;-83
2023/05/31 08:53:28;;;;;;;2.40;1.73;;;16.50;99.90;;;;;;5008568;28;20238;-81
2023/05/31 08:55:55;;;;;;;3.27;1.97;;;16.70;99.90;;;;;;5007192;28;20241;-81
2023/05/31 08:58:21;;;;;;;1.73;1.60;;;17.10;99.90;;;;;;4991200;28;20208;-81
2023/05/31 09:00:48;;;;;;;4.93;2.10;;;16.90;99.90;;;;;;4991391;28;20184;-82
2023/05/31 09:03:14;;;;;;;3.83;2.23;;;16.90;99.90;;;;;;5008602;28;20239;-82
2023/05/31 09:05:41;;;;;;;3.40;2.03;;;16.90;99.90;;;;;;4974434;28;20315;-81
2023/05/31 09:08:07;;;;;;;2.47;1.80;;;16.80;99.90;;;;;;4990723;28;20661;-81
2023/05/31 09:10:33;;;;;;;3.03;1.70;;;17.10;99.90;;;;;;4990528;28;20731;-80
2023/05/31 09:12:59;;;;;;;6.27;2.53;;;17.00;99.90;;;;;;5007931;28;20187;-81
2023/05/31 09:15:25;;;;;;;5.63;2.53;;;16.80;99.90;;;;;;4991404;28;20281;-82
2023/05/31 09:17:52;;;;;;;2.30;1.40;;;16.50;99.90;;;;;;4974201;28;20212;-81
2023/05/31 09:20:18;;;;;;;5.07;1.77;;;16.40;99.90;;;;;;4990581;28;20573;-81
2023/05/31 09:22:50;;;;;;;1.83;1.67;;;16.50;99.90;;;;;;4990206;28;20241;-81
2023/05/31 09:25:16;;;;;;;4.17;1.83;;;16.40;99.90;;;;;;4958274;28;20211;-82
2023/05/31 09:27:42;;;;;;;2.43;1.43;;;16.40;99.90;;;;;;4974612;28;20645;-80
2023/05/31 09:30:13;;;;;;;1.70;1.57;;;16.20;99.90;;;;;;4974154;28;20226;-81
2023/05/31 09:32:39;;;;;;;1.37;1.23;;;16.50;99.90;;;;;;4990180;28;20219;-80
2023/05/31 09:35:13;;;;;;;2.13;1.40;;;16.50;99.90;;;;;;5007805;28;20231;-81
2023/05/31 09:37:46;;;;;;;2.57;2.27;;;16.70;99.90;;;;;;5007477;28;20243;-80
2023/05/31 09:40:33;;;;;;;3.67;1.70;;;17.00;99.90;;;;;;4989368;28;20301;-81
2023/05/31 09:43:00;;;;;;;1.80;1.70;;;17.10;99.90;;;;;;5006806;28;20222;-81
2023/05/31 09:45:25;;;;;;;2.63;1.47;;;16.70;99.90;;;;;;4990242;28;20191;-82
2023/05/31 09:47:51;;;;;;;4.73;1.50;;;16.70;99.90;;;;;;5006385;28;20243;-81
2023/05/31 09:50:19;;;;;;;4.27;1.60;;;16.60;99.90;;;;;;4989891;28;20217;-81
2023/05/31 09:52:54;;;;;;;1.50;1.40;;;17.10;99.90;;;;;;5007302;28;20333;-81
2023/05/31 09:55:20;;;;;;;3.77;1.80;;;16.80;99.90;;;;;;5007493;28;20218;-83
2023/05/31 09:57:46;;;;;;;3.07;2.03;;;16.60;99.90;;;;;;5007888;28;20249;-82
2023/05/31 10:00:18;;;;;;;4.57;1.93;;;16.60;99.90;;;;;;4989986;28;20230;-81
2023/05/31 10:02:46;;;;;;;3.30;2.07;;;16.70;99.90;;;;;;4989655;28;20231;-81
2023/05/31 10:05:12;;;;;;;8.00;2.10;;;16.90;99.90;;;;;;4989893;28;20212;-81
2023/05/31 10:07:44;;;;;;;3.53;2.13;;;16.90;99.90;;;;;;4989553;28;20274;-82
2023/05/31 10:10:11;;;;;;;5.43;2.47;;;17.00;99.90;;;;;;5006864;28;20672;-81
2023/05/31 10:12:53;;;;;;;5.67;1.83;;;17.30;99.90;;;;;;4974205;28;20183;-82
2023/05/31 10:15:24;;;;;;;4.07;1.97;;;17.40;99.90;;;;;;5007365;28;20464;-82
2023/05/31 10:18:02;;;;;;;3.23;1.90;;;17.70;99.90;;;;;;4989226;28;20362;-84
2023/05/31 10:20:52;;;;;;;3.27;2.00;;;17.50;99.90;;;;;;5006965;28;20294;-83
2023/05/31 10:23:29;;;;;;;4.43;2.40;;;17.50;99.90;;;;;;4997117;28;20379;-81
2023/05/31 10:26:14;;;;;;;1.50;1.40;;;17.20;99.90;;;;;;5007029;28;20215;-82
2023/05/31 10:28:58;;;;;;;2.77;1.83;;;17.50;99.90;;;;;;4989067;28;20219;-82
2023/05/31 10:31:32;;;;;;;3.53;2.87;;;17.60;99.90;;;;;;4989457;28;20242;-83
2023/05/31 10:34:14;;;;;;;6.10;3.03;;;17.50;99.90;;;;;;4989283;28;20242;-83
2023/05/31 10:36:40;;;;;;;4.57;2.17;;;17.90;99.90;;;;;;4989678;28;20660;-82
2023/05/31 10:39:31;;;;;;;4.23;1.73;;;18.30;99.90;;;;;;4972949;28;20238;-81
2023/05/31 10:42:39;;;;;;;2.57;1.70;;;17.80;99.90;;;;;;4958023;28;20239;-82
2023/05/31 10:45:16;;;;;;;6.23;2.23;;;18.10;99.90;;;;;;4962045;28;20242;-82
2023/05/31 10:48:00;;;;;;;4.40;2.17;;;18.90;99.90;;;;;;4988874;28;20227;-81
2023/05/31 10:50:26;;;;;;;8.43;2.33;;;18.80;99.90;;;;;;5006267;28;20790;-83
2023/05/31 10:53:07;;;;;;;7.13;2.47;;;18.30;99.90;;;;;;4990406;28;20226;-82
2023/05/31 10:55:44;;;;;;;2.30;2.10;;;18.50;99.90;;;;;;4993240;28;20211;-81
2023/05/31 10:58:29;;;;;;;3.87;2.10;;;18.10;99.90;;;;;;4977363;28;20233;-82
2023/05/31 11:01:13;;;;;;;5.60;2.13;;;17.90;99.90;;;;;;5010754;28;20274;-81
2023/05/31 11:03:52;;;;;;;2.90;1.70;;;17.80;99.90;;;;;;5010851;28;20215;-81
2023/05/31 11:06:25;;;;;;;2.40;1.57;;;18.20;99.90;;;;;;5010705;28;20207;-81
2023/05/31 11:09:07;;;;;;;4.47;1.90;;;18.20;99.90;;;;;;4992448;28;20702;-81
2023/05/31 11:11:33;;;;;;;6.87;2.37;;;18.10;99.90;;;;;;5009495;28;20223;-81
2023/05/31 11:13:59;;;;;;;2.33;2.13;;;18.20;99.90;;;;;;5010066;28;20559;-82
2023/05/31 11:16:26;;;;;;;3.13;2.23;;;17.60;99.90;;;;;;4992968;28;20214;-82
2023/05/31 11:19:20;;;;;;;4.03;1.73;;;17.70;99.90;;;;;;4976565;28;20183;-81
2023/05/31 11:21:53;;;;;;;6.00;1.87;;;17.50;99.90;;;;;;5007761;28;20212;-82
2023/05/31 11:24:33;;;;;;;4.47;1.87;;;17.90;99.90;;;;;;4992990;28;20355;-80
2023/05/31 11:27:00;;;;;;;4.40;2.17;;;18.20;99.90;;;;;;4992492;28;20751;-81
2023/05/31 11:29:44;;;;;;;3.83;2.87;;;18.20;99.90;;;;;;4992876;28;20222;-81
2023/05/31 11:32:14;;;;;;;2.60;1.63;;;18.40;99.90;;;;;;5009883;28;20223;-81
2023/05/31 11:34:50;;;;;;;5.83;2.10;;;18.10;99.90;;;;;;4992451;28;20693;-81
2023/05/31 11:37:16;;;;;;;3.83;2.87;;;18.20;99.90;;;;;;5009814;28;20223;-80
2023/05/31 11:39:46;;;;;;;5.20;2.03;;;18.10;99.90;;;;;;5008629;28;20289;-81
2023/05/31 11:42:12;;;;;;;2.43;2.03;;;17.90;99.90;;;;;;5009737;28;20238;-81
2023/05/31 11:44:43;;;;;;;3.23;2.60;;;17.60;99.90;;;;;;5009920;28;20285;-82
2023/05/31 11:47:26;;;;;;;9.90;3.20;;;17.40;99.90;;;;;;4992308;28;20294;-82
2023/05/31 11:49:52;;;;;;;8.70;3.03;;;17.70;99.90;;;;;;4992399;28;20235;-82
2023/05/31 11:52:21;;;;;;;5.07;2.60;;;17.50;99.90;;;;;;5009973;28;20223;-83
2023/05/31 11:54:49;;;;;;;6.03;2.73;;;17.60;99.90;;;;;;4976382;28;20180;-81
2023/05/31 11:57:16;;;;;;;3.00;1.73;;;17.50;99.90;;;;;;4992405;28;20219;-84
2023/05/31 11:59:43;;;;;;;5.03;2.07;;;17.20;99.90;;;;;;5009272;28;20677;-83
2023/05/31 12:02:10;;;;;;;4.87;1.90;;;17.40;99.90;;;;;;5009631;28;20759;-82
2023/05/31 12:04:37;;;;;;;3.37;2.43;;;17.60;99.90;;;;;;5008426;28;20485;-82
2023/05/31 12:07:05;;;;;;;3.53;1.97;;;17.50;99.90;;;;;;4992106;28;20179;-83
2023/05/31 12:09:33;;;;;;;3.80;2.07;;;17.30;99.90;;;;;;5010185;28;20295;-81
2023/05/31 12:12:02;;;;;;;2.90;2.10;;;17.20;99.90;;;;;;5009508;28;20223;-81
2023/05/31 12:14:28;;;;;;;3.40;2.07;;;17.00;99.90;;;;;;4991690;28;20223;-82
2023/05/31 12:16:54;;;;;;;3.10;2.30;;;16.40;99.90;;;;;;4991523;28;20280;-82
2023/05/31 12:19:21;;;;;;;3.93;2.20;;;16.60;99.90;;;;;;4991757;28;20808;-81
2023/05/31 12:21:47;;;;;;;3.60;2.60;;;17.00;99.90;;;;;;4992284;28;20284;-81
2023/05/31 12:24:17;;;;;;;5.43;2.30;;;17.00;99.90;;;;;;4991588;28;20223;-81
2023/05/31 12:26:44;;;;;;;3.67;1.97;;;17.00;99.90;;;;;;4991413;28;20221;-80
2023/05/31 12:29:14;;;;;;;3.47;1.70;;;17.20;99.90;;;;;;5009089;28;20218;-82
2023/05/31 12:31:40;;;;;;;4.13;1.77;;;17.20;99.90;;;;;;4975486;28;20220;-81
2023/05/31 12:34:05;;;;;;;2.10;1.83;;;17.20;99.90;;;;;;4975267;28;20180;-82
2023/05/31 12:36:45;;;;;;;8.07;2.33;;;17.40;99.90;;;;;;4991862;28;20245;-80
2023/05/31 12:39:12;;;;;;;2.33;2.13;;;17.30;99.90;;;;;;4982306;28;20700;-81
2023/05/31 12:41:42;;;;;;;5.33;2.50;;;17.40;99.90;;;;;;4991227;28;20230;-81
2023/05/31 12:44:08;;;;;;;12.10;2.50;;;17.70;99.90;;;;;;5008797;28;20230;-81
2023/05/31 12:46:41;;;;;;;4.27;1.30;;;17.70;99.90;;;;;;4991466;28;20207;-84
2023/05/31 12:49:22;;;;;;;7.17;2.10;;;17.60;99.90;;;;;;4974960;28;20192;-81
2023/05/31 12:51:58;;;;;;;3.40;2.37;;;17.00;99.90;;;;;;4991499;28;20218;-82
2023/05/31 12:54:26;;;;;;;10.97;3.00;;;16.90;99.90;;;;;;4991674;28;20215;-83